world map with AAR marked

AAR - Airport

This information may not be accurate or current and is not valid for navigation or flight planning. No warranty of fitness for any purpose is made or implied.

flag of Denmark

Donate via PayPal

Additional information is available on the NEW Great Circle Mapper

Location
City:  Århus, Denmark
Near (Alt.):Aarhus
Name:Tirstrup
ICAO / IATA:EKAH / AAR

Details
Type:Airport (Aerodrome, Airfield)
Latitude:56°18'00"N (56.300017)
Longitude:10°37'08"E (10.619008)
Elevation:82 ft (25 m)
Runways:2
Longest:9111 × 75 ft (2777 × 23 m)

Time
Timezone:UTC+1 (DST+4)
Local Time:

Weather
METAR:EKAH  281950Z AUTO 26013KT 9999NDV BKN015/// 17/12 Q1013
TAF:EKAH  281110Z 2812/2912 24015KT 9999 BKN020 BECMG 2818/2821 BKN010 TEMPO 2821/2908 BKN006 BECMG 2909/2911 SCT020

Related Locations
Nearby:
Farthest:CHT: 11513 mi / 18529 km
Waitangi [Tuuta], CIT, NZ

Find:

   beyond  
but within

Other Information
Maps:
Sources:

  


 


Great Circle Mapper   Great Circle Mapper
Great Circle Mapper FAQ   Great Circle Mapper FAQ
  Karl's Home Page
KLS²   KLS² Home
   GC on Facebook
Airlines of the World   Airlines of the World
Donate via PayPal


Copyright © 2004-2017, Karl L. Swartz. All rights reserved.
All trademarks mentioned herein belong to their respective owners.

Please see credits for attribution and copyright information.

Karl Swartz <karl@kls2.com>
  Powered by FreeBSD
Valid HTML 4.01!
Labeled with ICRA
hCard Microformat
Geo Microformat